首页
METAR-TAF:

METAR-TAF

机场 :

Hunt Field

Lander, 怀俄明州, 美国

纬度: 42-48-53N, 经度: 108-43-41W, 海拔: 1703米

当前天气观测

该预报发布于51分钟前的08:53 UTC
风速4节,风向
温度 6°C
湿度 61%
气压 1022 hPa
能見度: 16.1公里
天空无云

METAR: KLND 190853Z AUTO 35004KT 10SM CLR 06/M01 A3017 RMK AO2 SLP183 T00611011 58002

时间: 03:44 (09:44 UTC)

预报

该预报发布于4小时和24分钟前的05:20 UTC
预报有效从19日的 06点(UTC)到 20日的 06点(UTC)
风速5节,风向西
能見度: 10公里
散云层高于15000英尺
从 19日的 1500点(UTC)
风速4节,风向北转东北
能見度: 10公里
散云层高于20000英尺

TAF: KLND 190520Z 1906/2006 26005KT P6SM SCT150 FM191500 03004KT P6SM SCT200

超过4000个机场的气象观测和天气预报(METAR&TAF报告)。

可查询的气象台以黄色和红色小点在地图上表示。

将鼠标移到小点上方,可查看气象台名称。

然后点击查看天气观测和预报。

如需切换地图:点击带黑十字的绿色按钮放大地图;点击带横线的绿色按钮缩小地图;或者点击绿色箭头查看邻近地区的地图。


METAR-TAF: